Time;durP1;ratioP1;P1;durP2;ratioP2;P2;SDS_P1;SDS_P2;PMS_P1;PMS_P2;Temp;Humidity;BMP_temperature;BMP_pressure;BME280_temperature;BME280_humidity;BME280_pressure;Samples;Min_cycle;Max_cycle;Signal;HPM_P1;HPM_P2
2022/05/28 00:00:02;;;;;;;11.38;2.00;;;11.20;1.00;;;;;;4984687;28;20113;-83
2022/05/28 00:02:28;;;;;;;9.45;1.60;;;11.30;1.00;;;;;;4999249;28;20042;-84
2022/05/28 00:04:53;;;;;;;10.18;1.88;;;11.20;1.00;;;;;;4983591;28;20213;-83
2022/05/28 00:07:19;;;;;;;8.75;2.13;;;11.20;1.00;;;;;;5008470;28;20095;-83
2022/05/28 00:09:45;;;;;;;10.15;2.28;;;11.20;1.00;;;;;;4979984;28;20137;-83
2022/05/28 00:12:14;;;;;;;10.00;2.10;;;11.10;1.00;;;;;;4980977;28;20394;-84
2022/05/28 00:14:39;;;;;;;6.57;1.50;;;11.10;99.90;;;;;;4986840;28;20466;-84
2022/05/28 00:17:05;;;;;;;9.75;2.15;;;11.10;1.00;;;;;;4998464;28;20034;-83
2022/05/28 00:19:31;;;;;;;6.63;1.58;;;11.20;99.90;;;;;;4984283;28;20030;-83
2022/05/28 00:21:57;;;;;;;7.80;1.60;;;11.10;1.00;;;;;;4997068;28;20038;-83
2022/05/28 00:24:22;;;;;;;5.30;1.70;;;11.10;1.00;;;;;;4980659;28;20169;-83
2022/05/28 00:26:48;;;;;;;10.68;1.70;;;11.10;1.00;;;;;;5000860;28;20501;-84
2022/05/28 00:29:14;;;;;;;9.50;2.10;;;11.10;1.00;;;;;;4984010;28;20126;-84
2022/05/28 00:31:39;;;;;;;6.35;1.95;;;11.10;1.00;;;;;;4981190;28;20033;-84
2022/05/28 00:34:05;;;;;;;11.38;2.10;;;11.10;1.00;;;;;;4988446;28;20125;-83
2022/05/28 00:36:31;;;;;;;9.85;1.33;;;11.00;1.00;;;;;;4981279;28;20125;-84
2022/05/28 00:38:57;;;;;;;7.78;2.03;;;11.00;1.00;;;;;;4984491;28;20433;-84
2022/05/28 00:41:23;;;;;;;8.13;1.90;;;10.90;1.00;;;;;;4998536;28;20065;-84
2022/05/28 00:43:48;;;;;;;10.95;1.88;;;10.90;1.00;;;;;;4978383;28;20120;-84
2022/05/28 00:46:19;;;;;;;10.73;2.15;;;10.90;1.00;;;;;;4977860;28;20035;-83
2022/05/28 00:48:47;;;;;;;6.68;1.50;;;10.80;1.00;;;;;;4995476;28;20046;-84
2022/05/28 00:51:24;;;;;;;6.90;1.38;;;10.80;1.00;;;;;;4987215;28;20081;-83
2022/05/28 00:53:50;;;;;;;14.95;2.35;;;10.70;1.00;;;;;;5010266;28;20794;-83
2022/05/28 00:56:16;;;;;;;8.38;1.88;;;10.70;1.00;;;;;;4980956;28;20047;-84
2022/05/28 00:58:42;;;;;;;10.02;1.88;;;10.60;1.00;;;;;;5000629;28;20030;-83
2022/05/28 01:01:09;;;;;;;7.10;1.60;;;10.60;1.00;;;;;;5000494;28;20132;-84
2022/05/28 01:04:04;;;;;;;9.95;2.05;;;10.60;1.00;;;;;;5006242;28;20126;-84
2022/05/28 01:06:36;;;;;;;7.25;1.60;;;10.60;1.00;;;;;;5009161;28;20053;-85
2022/05/28 01:09:12;;;;;;;7.78;1.88;;;10.50;1.00;;;;;;4994397;28;20049;-84
2022/05/28 01:11:51;;;;;;;14.57;2.58;;;10.40;99.90;;;;;;5014766;28;20045;-83
2022/05/28 01:14:41;;;;;;;7.90;1.83;;;10.40;99.90;;;;;;5014436;28;20177;-84
2022/05/28 01:17:16;;;;;;;8.38;1.75;;;10.40;99.90;;;;;;5011987;28;20064;-84
2022/05/28 01:20:26;;;;;;;6.90;1.77;;;10.30;99.90;;;;;;4986239;28;20497;-83
2022/05/28 01:23:12;;;;;;;9.43;1.67;;;10.30;99.90;;;;;;4968963;28;20054;-83
2022/05/28 01:25:43;;;;;;;9.52;2.08;;;10.30;99.90;;;;;;5011342;28;20056;-83
2022/05/28 01:28:22;;;;;;;9.80;1.77;;;10.20;99.90;;;;;;5010838;28;20073;-83
2022/05/28 01:30:48;;;;;;;8.73;1.88;;;10.20;99.90;;;;;;4994611;28;20100;-84
2022/05/28 01:33:16;;;;;;;8.48;1.80;;;10.20;99.90;;;;;;5007260;28;20050;-83
2022/05/28 01:35:45;;;;;;;8.15;1.83;;;10.20;99.90;;;;;;4983806;28;20529;-83
2022/05/28 01:38:12;;;;;;;8.15;1.90;;;10.20;99.90;;;;;;5005157;28;20038;-83
2022/05/28 01:40:39;;;;;;;5.07;1.67;;;10.30;99.90;;;;;;4991842;28;20069;-84
2022/05/28 01:43:11;;;;;;;11.73;2.10;;;10.20;99.90;;;;;;5014621;28;20065;-84
2022/05/28 01:45:40;;;;;;;13.18;2.00;;;10.20;99.90;;;;;;5009874;28;20691;-83
2022/05/28 01:48:08;;;;;;;8.00;1.88;;;10.20;99.90;;;;;;5000842;28;20128;-84
2022/05/28 01:50:39;;;;;;;8.35;1.98;;;10.10;99.90;;;;;;4987958;28;20583;-84
2022/05/28 01:53:07;;;;;;;11.75;2.75;;;10.20;99.90;;;;;;4986379;28;20172;-83
2022/05/28 01:55:39;;;;;;;7.10;1.80;;;10.10;99.90;;;;;;5000413;28;20038;-83
2022/05/28 01:58:05;;;;;;;8.65;1.77;;;10.10;99.90;;;;;;5013681;28;20092;-83
2022/05/28 02:00:31;;;;;;;9.43;1.92;;;10.10;99.90;;;;;;5001670;28;20030;-84
2022/05/28 02:03:01;;;;;;;9.48;1.98;;;10.10;99.90;;;;;;5006761;28;20037;-83
2022/05/28 02:05:27;;;;;;;6.18;1.90;;;10.00;99.90;;;;;;4986350;28;20126;-83
2022/05/28 02:07:53;;;;;;;7.68;1.83;;;10.00;99.90;;;;;;4984420;28;20039;-84
2022/05/28 02:10:22;;;;;;;9.38;2.20;;;10.00;99.90;;;;;;4997939;28;20043;-84
2022/05/28 02:13:06;;;;;;;11.05;2.15;;;9.90;99.90;;;;;;4990291;28;20073;-83
2022/05/28 02:15:42;;;;;;;7.47;2.13;;;9.90;99.90;;;;;;4985651;28;20026;-84
2022/05/28 02:18:22;;;;;;;9.77;1.88;;;9.90;99.90;;;;;;4994794;28;20038;-84
2022/05/28 02:20:57;;;;;;;12.90;2.53;;;9.90;99.90;;;;;;4996184;28;20851;-83
2022/05/28 02:23:33;;;;;;;;;;;9.80;1.00;;;;;;4998944;28;20046;-84
2022/05/28 02:26:28;;;;;;;;;;;9.80;1.00;;;;;;5010231;28;19917;-83
2022/05/28 02:28:55;;;;;;;10.98;2.10;;;9.90;1.00;;;;;;4995211;28;20008;-84
2022/05/28 02:31:32;;;;;;;8.05;2.13;;;9.80;1.00;;;;;;4982406;28;20038;-83
2022/05/28 02:33:59;;;;;;;9.30;2.10;;;9.90;1.00;;;;;;4983998;28;20061;-83
2022/05/28 02:36:25;;;;;;;12.30;2.40;;;10.00;99.90;;;;;;4997654;28;20113;-83
2022/05/28 02:38:54;;;;;;;10.85;2.50;;;10.00;99.90;;;;;;5009713;28;20116;-82
2022/05/28 02:41:21;;;;;;;11.75;2.13;;;10.10;99.90;;;;;;4995491;28;20157;-83
2022/05/28 02:43:46;;;;;;;8.02;2.20;;;10.10;99.90;;;;;;5004128;28;20037;-83
2022/05/28 02:46:12;;;;;;;8.88;2.00;;;10.10;99.90;;;;;;4987576;28;20038;-83
2022/05/28 02:48:39;;;;;;;7.63;2.10;;;10.10;99.90;;;;;;4988575;28;20105;-83
2022/05/28 02:51:07;;;;;;;7.93;2.47;;;10.20;99.90;;;;;;5000100;28;20116;-83
2022/05/28 02:53:33;;;;;;;12.98;2.67;;;10.20;99.90;;;;;;5011382;28;20118;-83
2022/05/28 02:55:59;;;;;;;11.18;2.58;;;10.20;99.90;;;;;;5001387;28;20617;-83
2022/05/28 02:58:25;;;;;;;15.35;3.47;;;10.20;99.90;;;;;;4983586;28;20273;-84
2022/05/28 03:00:51;;;;;;;12.68;2.67;;;10.20;1.00;;;;;;5010543;28;20034;-86
2022/05/28 03:03:19;;;;;;;9.80;2.63;;;10.10;1.00;;;;;;4997405;28;20058;-86
2022/05/28 03:05:50;;;;;;;9.25;2.35;;;10.10;1.00;;;;;;5008307;28;20053;-86
2022/05/28 03:08:17;;;;;;;11.00;2.70;;;10.00;1.00;;;;;;5013743;28;20035;-84
2022/05/28 03:10:43;;;;;;;12.65;2.72;;;9.90;1.00;;;;;;4979632;28;20046;-84
2022/05/28 03:13:09;;;;;;;10.05;2.75;;;9.80;53.40;;;;;;4983174;28;20039;-84
2022/05/28 03:15:35;;;;;;;12.82;2.85;;;9.80;70.30;;;;;;5000951;28;20038;-84
2022/05/28 03:18:01;;;;;;;13.88;2.63;;;9.80;35.00;;;;;;5013117;28;20394;-87
2022/05/28 03:20:27;;;;;;;11.52;2.70;;;9.90;65.60;;;;;;4995110;28;20093;-87
2022/05/28 03:22:53;;;;;;;13.95;3.15;;;9.90;99.90;;;;;;4983246;28;20125;-86
2022/05/28 03:25:19;;;;;;;11.07;2.50;;;9.80;99.90;;;;;;4999768;28;20129;-85
2022/05/28 03:27:45;;;;;;;12.32;2.85;;;9.70;99.90;;;;;;4999971;28;20373;-85
2022/05/28 03:30:11;;;;;;;11.40;2.67;;;9.70;99.90;;;;;;5009113;28;20065;-85
2022/05/28 03:32:37;;;;;;;14.55;3.10;;;9.80;99.90;;;;;;5014497;28;20050;-85
2022/05/28 03:35:04;;;;;;;13.77;3.05;;;9.80;99.90;;;;;;4984365;28;20037;-84
2022/05/28 03:37:29;;;;;;;10.40;2.40;;;9.80;99.90;;;;;;4983800;28;20195;-84
2022/05/28 03:39:58;;;;;;;12.80;3.05;;;9.90;99.90;;;;;;4981237;28;20133;-84
2022/05/28 03:42:24;;;;;;;12.48;3.13;;;9.90;99.90;;;;;;5005503;28;20268;-84
2022/05/28 03:44:49;;;;;;;15.07;2.65;;;9.90;99.90;;;;;;4981699;28;20042;-84
2022/05/28 03:47:15;;;;;;;13.68;3.40;;;9.90;99.90;;;;;;5001336;28;20430;-84
2022/05/28 03:49:43;;;;;;;16.23;3.17;;;10.00;99.90;;;;;;4987255;28;20069;-84
2022/05/28 03:52:10;;;;;;;14.18;3.00;;;10.00;99.90;;;;;;4997813;28;20489;-84
2022/05/28 03:54:35;;;;;;;15.82;2.90;;;10.00;99.90;;;;;;4993849;28;20138;-84
2022/05/28 03:57:08;;;;;;;22.35;3.58;;;9.90;99.90;;;;;;4988145;28;20464;-84
2022/05/28 03:59:34;;;;;;;12.60;2.70;;;10.00;60.00;;;;;;4999487;28;20381;-84
2022/05/28 04:02:01;;;;;;;15.95;2.95;;;10.00;1.00;;;;;;4982120;28;20042;-84
2022/05/28 04:04:31;;;;;;;16.25;3.08;;;10.00;1.00;;;;;;4978962;28;20097;-85
2022/05/28 04:06:59;;;;;;;12.68;2.63;;;9.90;1.00;;;;;;5012019;28;20382;-84
2022/05/28 04:09:25;;;;;;;15.77;3.38;;;10.00;1.00;;;;;;5005543;28;20054;-84
2022/05/28 04:11:51;;;;;;;14.98;3.03;;;9.90;1.00;;;;;;5010709;28;20123;-84
2022/05/28 04:14:16;;;;;;;10.43;3.00;;;9.90;1.00;;;;;;4991974;28;20042;-84
2022/05/28 04:16:45;;;;;;;18.65;3.05;;;9.80;1.00;;;;;;4988222;28;20068;-84
2022/05/28 04:19:10;;;;;;;12.52;3.05;;;9.80;1.00;;;;;;4982755;28;20104;-83
2022/05/28 04:21:36;;;;;;;13.77;3.03;;;9.80;1.00;;;;;;4978422;28;20034;-84
2022/05/28 04:24:03;;;;;;;11.85;2.83;;;9.80;1.00;;;;;;4983757;28;20034;-84
2022/05/28 04:26:29;;;;;;;16.85;3.78;;;9.90;1.00;;;;;;5005680;28;20074;-83
2022/05/28 04:28:54;;;;;;;17.63;4.25;;;9.90;1.00;;;;;;4995002;28;20073;-84
2022/05/28 04:31:20;;;;;;;13.02;2.67;;;10.00;1.00;;;;;;4981410;28;20038;-84
2022/05/28 04:33:46;;;;;;;13.88;2.80;;;10.00;1.00;;;;;;4982990;28;20038;-84
2022/05/28 04:36:12;;;;;;;14.18;3.05;;;10.10;1.00;;;;;;4979134;28;20486;-84
2022/05/28 04:38:38;;;;;;;16.42;2.97;;;10.20;1.00;;;;;;5000033;28;20458;-83
2022/05/28 04:41:03;;;;;;;13.93;3.13;;;10.20;1.00;;;;;;4979726;28;20440;-83
2022/05/28 04:43:29;;;;;;;14.52;2.70;;;10.30;1.00;;;;;;4987309;28;20438;-84
2022/05/28 04:45:55;;;;;;;14.50;2.92;;;10.40;1.00;;;;;;4987627;28;20548;-84
2022/05/28 04:48:20;;;;;;;10.90;2.90;;;10.50;1.00;;;;;;4996540;28;20529;-83
2022/05/28 04:50:46;;;;;;;14.93;3.10;;;10.60;1.00;;;;;;5010692;28;20042;-84
2022/05/28 04:53:17;;;;;;;11.82;3.80;;;10.60;1.00;;;;;;4989490;28;20045;-84
2022/05/28 04:55:45;;;;;;;13.73;2.80;;;10.60;1.00;;;;;;5006107;28;20527;-84
2022/05/28 04:58:30;;;;;;;11.05;3.10;;;10.60;99.90;;;;;;4991414;28;20085;-83
2022/05/28 05:00:56;;;;;;;12.40;3.05;;;10.60;99.90;;;;;;4987553;28;20154;-84
2022/05/28 05:03:22;;;;;;;9.88;2.60;;;10.60;1.00;;;;;;5012100;28;20042;-84
2022/05/28 05:05:48;;;;;;;13.73;3.17;;;10.60;1.00;;;;;;5014672;28;20034;-85
2022/05/28 05:08:13;;;;;;;14.45;2.88;;;10.70;99.90;;;;;;4988975;28;20063;-83
2022/05/28 05:10:39;;;;;;;13.68;3.03;;;10.70;1.00;;;;;;5006909;28;20132;-83
2022/05/28 05:13:05;;;;;;;14.73;3.42;;;10.70;99.90;;;;;;5007571;28;20065;-84
2022/05/28 05:15:31;;;;;;;16.60;3.05;;;10.80;1.00;;;;;;4985362;28;20035;-84
2022/05/28 05:17:57;;;;;;;13.82;2.90;;;10.80;99.90;;;;;;4999404;28;20571;-84
2022/05/28 05:20:23;;;;;;;13.38;3.00;;;11.00;1.00;;;;;;4994993;28;20128;-83
2022/05/28 05:22:52;;;;;;;12.43;2.75;;;10.90;99.90;;;;;;5013510;28;20121;-83
2022/05/28 05:25:18;;;;;;;9.40;2.92;;;11.10;99.90;;;;;;5003479;28;20037;-84
2022/05/28 05:27:44;;;;;;;12.00;3.20;;;11.10;1.00;;;;;;4988356;28;20049;-84
2022/05/28 05:30:10;;;;;;;15.55;3.30;;;11.10;1.00;;;;;;5012758;28;20138;-84
2022/05/28 05:32:36;;;;;;;18.35;3.35;;;11.20;1.00;;;;;;4983617;28;20092;-84
2022/05/28 05:35:02;;;;;;;13.50;3.13;;;11.30;1.00;;;;;;4983783;28;20152;-84
2022/05/28 05:37:28;;;;;;;13.43;3.40;;;11.30;1.00;;;;;;4994715;28;20044;-83
2022/05/28 05:39:54;;;;;;;10.60;2.85;;;11.30;99.90;;;;;;4987667;28;20054;-83
2022/05/28 05:42:20;;;;;;;10.07;3.10;;;11.40;99.90;;;;;;4984494;28;20026;-83
2022/05/28 05:44:46;;;;;;;11.88;3.05;;;11.50;99.90;;;;;;4989715;28;20039;-84
2022/05/28 05:47:11;;;;;;;19.25;3.55;;;11.60;99.90;;;;;;4986893;28;20053;-84
2022/05/28 05:49:37;;;;;;;12.90;3.33;;;11.80;99.90;;;;;;5013172;28;20045;-84
2022/05/28 05:52:04;;;;;;;14.55;3.50;;;11.70;1.00;;;;;;4984098;28;20048;-83
2022/05/28 05:54:30;;;;;;;11.55;3.22;;;11.90;1.00;;;;;;4979542;28;20062;-84
2022/05/28 05:56:56;;;;;;;13.13;2.75;;;11.80;99.90;;;;;;4984360;28;20050;-84
2022/05/28 05:59:22;;;;;;;15.85;2.90;;;11.90;99.90;;;;;;4989685;28;20037;-84
2022/05/28 06:01:51;;;;;;;11.02;2.90;;;12.00;99.90;;;;;;4985024;28;20223;-83
2022/05/28 06:04:16;;;;;;;14.52;3.38;;;12.30;99.90;;;;;;4963478;28;20121;-83
2022/05/28 06:06:42;;;;;;;17.00;3.65;;;12.30;99.90;;;;;;4982765;28;20061;-84
2022/05/28 06:09:09;;;;;;;11.77;2.53;;;12.30;99.90;;;;;;4983267;28;20121;-84
2022/05/28 06:11:35;;;;;;;9.77;2.67;;;12.20;99.90;;;;;;5015910;28;20065;-83
2022/05/28 06:14:00;;;;;;;11.85;2.80;;;12.20;99.90;;;;;;4984304;28;20069;-83
2022/05/28 06:16:26;;;;;;;14.60;3.17;;;12.10;99.90;;;;;;4997740;28;20453;-84
2022/05/28 06:18:52;;;;;;;11.32;2.90;;;12.10;99.90;;;;;;4985057;28;20116;-84
2022/05/28 06:21:18;;;;;;;13.75;2.92;;;12.10;99.90;;;;;;4982356;28;20039;-84
2022/05/28 06:23:43;;;;;;;19.45;3.60;;;12.50;99.90;;;;;;4987159;28;20070;-85
2022/05/28 06:26:10;;;;;;;14.13;3.20;;;12.50;99.90;;;;;;4987342;28;20124;-84
2022/05/28 06:28:36;;;;;;;11.68;2.92;;;12.40;99.90;;;;;;4980448;28;20077;-84
2022/05/28 06:31:08;;;;;;;16.58;3.10;;;12.20;99.90;;;;;;5011915;28;20293;-85
2022/05/28 06:33:37;;;;;;;15.77;2.80;;;12.10;99.90;;;;;;5013129;28;20458;-84
2022/05/28 06:36:05;;;;;;;16.25;3.30;;;11.90;99.90;;;;;;4999696;28;20114;-84
2022/05/28 06:38:32;;;;;;;15.13;3.50;;;11.90;99.90;;;;;;4983728;28;20257;-84
2022/05/28 06:40:58;;;;;;;10.05;2.85;;;11.90;99.90;;;;;;5014309;28;20062;-83
2022/05/28 06:43:24;;;;;;;14.02;2.60;;;12.00;99.90;;;;;;4986267;28;20061;-84
2022/05/28 06:45:50;;;;;;;11.20;2.50;;;12.10;99.90;;;;;;5004088;28;20042;-84
2022/05/28 06:48:16;;;;;;;10.38;2.85;;;12.40;99.90;;;;;;4985098;28;20042;-84
2022/05/28 06:53:27;;;;;;;9.45;2.30;;;12.30;99.90;;;;;;4987146;28;20049;-83
2022/05/28 06:55:52;;;;;;;11.38;2.22;;;12.20;99.90;;;;;;5011532;28;20144;-84
2022/05/28 06:58:18;;;;;;;8.18;2.33;;;12.20;99.90;;;;;;5002429;28;20121;-84
2022/05/28 07:00:44;;;;;;;6.88;2.25;;;12.40;99.90;;;;;;4984376;28;20481;-84
2022/05/28 07:03:15;;;;;;;9.73;2.15;;;12.60;99.90;;;;;;4990222;28;20054;-84
2022/05/28 07:05:41;;;;;;;7.65;2.00;;;12.40;99.90;;;;;;4998283;28;20121;-85
2022/05/28 07:08:07;;;;;;;7.93;1.98;;;12.30;99.90;;;;;;4998559;28;20048;-83
2022/05/28 07:10:38;;;;;;;11.55;2.40;;;12.20;99.90;;;;;;5008149;28;20124;-84
2022/05/28 07:13:05;;;;;;;8.98;2.40;;;12.20;99.90;;;;;;5001033;28;20047;-84
2022/05/28 07:15:31;;;;;;;8.32;2.40;;;12.00;99.90;;;;;;4981182;28;20042;-83
2022/05/28 07:17:56;;;;;;;8.13;2.00;;;12.10;99.90;;;;;;5002211;28;20040;-84
2022/05/28 07:20:22;;;;;;;10.15;2.20;;;12.20;99.90;;;;;;4983779;28;20034;-85
2022/05/28 07:22:48;;;;;;;9.73;2.17;;;12.10;99.90;;;;;;4981661;28;20367;-84
2022/05/28 07:25:13;;;;;;;8.23;2.53;;;12.10;99.90;;;;;;4983703;28;20146;-84
2022/05/28 07:27:39;;;;;;;9.75;2.30;;;12.10;99.90;;;;;;4999587;28;20519;-84
2022/05/28 07:30:06;;;;;;;8.48;2.25;;;12.20;99.90;;;;;;5000818;28;20053;-84
2022/05/28 07:32:31;;;;;;;11.00;2.65;;;12.20;99.90;;;;;;5005304;28;20037;-84
2022/05/28 07:34:58;;;;;;;12.65;3.00;;;12.40;99.90;;;;;;5002157;28;20095;-84
2022/05/28 07:37:29;;;;;;;12.68;2.60;;;12.20;99.90;;;;;;5006938;28;20127;-84
2022/05/28 07:39:58;;;;;;;11.60;3.17;;;12.30;99.90;;;;;;5010873;28;20053;-84
2022/05/28 07:42:24;;;;;;;11.93;2.70;;;12.20;99.90;;;;;;4985513;28;20045;-83
2022/05/28 07:44:49;;;;;;;15.57;3.47;;;12.40;99.90;;;;;;5001834;28;20458;-84
2022/05/28 07:47:18;;;;;;;13.57;3.20;;;12.70;99.90;;;;;;4979246;28;20098;-83
2022/05/28 07:49:44;;;;;;;12.85;3.22;;;12.90;99.90;;;;;;4976907;28;20089;-83
2022/05/28 07:52:10;;;;;;;15.20;3.20;;;13.20;99.90;;;;;;5001415;28;20046;-84
2022/05/28 07:54:36;;;;;;;15.45;3.53;;;13.40;99.90;;;;;;4998931;28;20515;-83
2022/05/28 07:57:02;;;;;;;13.88;3.05;;;13.00;99.90;;;;;;5000198;28;20543;-85
2022/05/28 07:59:29;;;;;;;12.35;3.05;;;12.80;99.90;;;;;;4999237;28;20036;-83
2022/05/28 08:01:55;;;;;;;19.08;3.42;;;12.60;99.90;;;;;;4980155;28;20046;-84
2022/05/28 08:04:21;;;;;;;14.68;3.15;;;12.70;99.90;;;;;;4982489;28;20034;-83
2022/05/28 08:06:47;;;;;;;15.63;3.38;;;12.80;99.90;;;;;;4980532;28;20044;-83
2022/05/28 08:09:13;;;;;;;17.27;2.80;;;13.20;99.90;;;;;;4996668;28;20037;-83
2022/05/28 08:11:42;;;;;;;9.95;2.58;;;13.10;99.90;;;;;;4982049;28;20049;-83
2022/05/28 08:14:08;;;;;;;14.38;2.90;;;13.10;99.90;;;;;;5008642;28;20038;-85
2022/05/28 08:16:34;;;;;;;13.10;2.90;;;13.00;99.90;;;;;;5008298;28;20085;-84
2022/05/28 08:19:00;;;;;;;17.17;3.13;;;12.70;99.90;;;;;;4979191;28;20030;-84
2022/05/28 08:24:11;;;;;;;12.50;2.92;;;13.60;99.90;;;;;;5001995;28;20468;-83
2022/05/28 08:26:39;;;;;;;13.63;2.95;;;13.70;99.90;;;;;;4998242;28;20054;-84
2022/05/28 08:29:05;;;;;;;15.70;4.10;;;13.30;99.90;;;;;;4997518;28;20449;-84
2022/05/28 08:31:34;;;;;;;9.30;2.50;;;13.20;99.90;;;;;;4988104;28;20319;-83
2022/05/28 08:34:00;;;;;;;10.32;2.78;;;13.10;99.90;;;;;;4997921;28;20042;-84
2022/05/28 08:36:25;;;;;;;12.50;2.83;;;13.10;99.90;;;;;;4980175;28;20038;-83
2022/05/28 08:38:51;;;;;;;13.05;3.10;;;13.60;99.90;;;;;;4984543;28;20031;-83
2022/05/28 08:41:20;;;;;;;12.63;3.08;;;14.20;99.90;;;;;;4996560;28;20046;-84
2022/05/28 08:44:07;;;;;;;16.08;3.25;;;14.00;99.90;;;;;;4978601;28;20128;-83
2022/05/28 08:46:36;;;;;;;18.45;3.42;;;13.40;99.90;;;;;;4997801;28;20128;-83
2022/05/28 08:49:04;;;;;;;14.98;3.35;;;13.10;99.90;;;;;;4976437;28;20047;-83
2022/05/28 08:51:50;;;;;;;15.20;2.80;;;12.80;99.90;;;;;;4970915;28;20576;-84
2022/05/28 08:54:30;;;;;;;12.32;3.25;;;12.80;99.90;;;;;;4982698;28;20121;-83
2022/05/28 08:57:01;;;;;;;11.02;2.50;;;12.70;99.90;;;;;;5007485;28;20034;-83
2022/05/28 08:59:46;;;;;;;13.77;2.65;;;13.20;99.90;;;;;;5005752;28;20125;-84
2022/05/28 09:02:20;;;;;;;10.25;2.85;;;13.20;99.90;;;;;;4980314;28;20030;-83
2022/05/28 09:04:46;;;;;;;13.00;2.92;;;13.10;99.90;;;;;;4981241;28;20038;-85
2022/05/28 09:07:14;;;;;;;12.07;2.80;;;13.40;99.90;;;;;;4995917;28;20126;-83
2022/05/28 09:09:50;;;;;;;12.45;2.60;;;14.00;99.90;;;;;;4984143;28;20045;-83
2022/05/28 09:12:25;;;;;;;9.65;2.75;;;14.20;99.90;;;;;;5008911;28;20509;-83
2022/05/28 09:14:51;;;;;;;10.73;2.13;;;14.40;99.90;;;;;;4979351;28;20494;-84
2022/05/28 09:17:34;;;;;;;8.60;2.30;;;14.10;95.60;;;;;;4996915;28;20050;-84
2022/05/28 09:20:21;;;;;;;13.00;3.08;;;14.00;99.90;;;;;;5011297;28;20034;-85
2022/05/28 09:22:47;;;;;;;17.38;3.58;;;13.70;99.90;;;;;;4981093;28;20080;-84
2022/05/28 09:25:19;;;;;;;12.95;2.90;;;13.50;99.90;;;;;;4999997;28;20129;-85
2022/05/28 09:28:13;;;;;;;8.73;2.40;;;13.20;99.90;;;;;;5002969;28;20122;-83
2022/05/28 09:31:25;;;;;;;10.45;2.22;;;13.30;99.90;;;;;;4983790;28;20466;-84
2022/05/28 09:34:21;;;;;;;9.85;2.10;;;13.40;99.90;;;;;;4995101;28;20049;-83
2022/05/28 09:36:46;;;;;;;;;;;13.40;99.90;;;;;;5004975;28;20048;-84
2022/05/28 09:39:38;;;;;;;13.13;2.53;;;13.50;99.90;;;;;;4998091;28;19917;-84
2022/05/28 09:42:11;;;;;;;13.35;3.17;;;13.40;99.90;;;;;;4982668;28;20138;-84
2022/05/28 09:44:59;;;;;;;10.68;2.53;;;13.40;99.90;;;;;;5009768;28;20030;-85
2022/05/28 09:47:25;;;;;;;15.82;2.47;;;13.40;99.90;;;;;;5009574;28;20493;-83
2022/05/28 09:49:52;;;;;;;13.05;2.65;;;13.90;99.90;;;;;;5001559;28;20103;-84
2022/05/28 09:52:25;;;;;;;8.90;2.60;;;14.00;99.90;;;;;;4984332;28;20527;-84
2022/05/28 09:54:51;;;;;;;13.73;3.10;;;14.50;99.90;;;;;;4995752;28;20042;-84
2022/05/28 09:57:26;;;;;;;11.30;3.53;;;14.80;99.90;;;;;;4999218;28;20310;-84
2022/05/28 10:00:00;;;;;;;12.80;2.83;;;13.90;99.90;;;;;;4981251;28;20039;-85
2022/05/28 10:02:40;;;;;;;14.98;2.60;;;13.20;99.90;;;;;;4984515;28;20103;-85
2022/05/28 10:05:11;;;;;;;14.38;2.88;;;12.50;99.90;;;;;;4983621;28;20112;-85
2022/05/28 10:07:45;;;;;;;13.50;2.97;;;12.20;99.90;;;;;;4981779;28;20070;-84
2022/05/28 10:10:12;;;;;;;15.07;3.20;;;12.50;99.90;;;;;;4980857;28;20045;-84
2022/05/28 10:12:38;;;;;;;14.35;2.75;;;12.60;99.90;;;;;;4982380;28;20038;-84
2022/05/28 10:15:09;;;;;;;14.68;2.75;;;13.20;99.90;;;;;;5002025;28;20042;-85
2022/05/28 10:17:36;;;;;;;10.88;2.95;;;13.50;99.90;;;;;;5013384;28;20419;-84
2022/05/28 10:20:13;;;;;;;11.93;2.65;;;13.20;99.90;;;;;;4983096;28;20507;-84
2022/05/28 10:22:39;;;;;;;21.20;3.45;;;13.20;99.90;;;;;;4981121;28;20235;-84
2022/05/28 10:25:21;;;;;;;11.95;2.58;;;13.20;99.90;;;;;;4987222;28;20114;-85
2022/05/28 10:27:52;;;;;;;12.50;2.63;;;13.30;99.90;;;;;;4982969;28;20153;-84
2022/05/28 10:30:29;;;;;;;11.13;2.28;;;13.80;99.90;;;;;;4998381;28;20374;-83
2022/05/28 10:32:55;;;;;;;8.85;2.75;;;13.70;99.90;;;;;;5012257;28;20046;-84
2022/05/28 10:35:27;;;;;;;10.77;2.42;;;13.50;99.90;;;;;;5000171;28;20041;-84
2022/05/28 10:38:05;;;;;;;10.05;2.60;;;13.90;99.90;;;;;;4995786;28;20045;-85
2022/05/28 10:40:30;;;;;;;10.07;2.42;;;14.30;99.90;;;;;;4980536;28;20049;-84
2022/05/28 10:43:01;;;;;;;8.55;2.80;;;14.40;99.90;;;;;;4984644;28;20035;-84
2022/05/28 10:45:50;;;;;;;11.80;2.22;;;14.00;99.90;;;;;;4983274;28;20563;-85
2022/05/28 10:48:27;;;;;;;10.95;2.50;;;14.00;99.90;;;;;;5010363;28;20038;-84
2022/05/28 10:51:19;;;;;;;7.35;1.83;;;13.10;88.00;;;;;;4995719;28;20529;-85
2022/05/28 10:54:08;;;;;;;10.23;2.30;;;13.70;97.00;;;;;;4985766;28;20042;-84
2022/05/28 10:56:55;;;;;;;5.32;1.80;;;14.50;99.90;;;;;;5009602;28;20133;-85
2022/05/28 10:59:42;;;;;;;10.57;2.05;;;14.50;90.00;;;;;;5011032;28;20046;-81
2022/05/28 11:02:34;;;;;;;12.82;2.45;;;14.50;77.10;;;;;;4989600;28;20126;-82
2022/05/28 11:05:18;;;;;;;7.93;2.30;;;14.80;73.60;;;;;;5011718;28;20109;-83
2022/05/28 11:07:51;;;;;;;7.70;1.73;;;15.00;77.10;;;;;;5006609;28;20584;-82
2022/05/28 11:10:27;;;;;;;7.10;2.03;;;15.00;60.60;;;;;;5008303;28;20037;-82
2022/05/28 11:13:25;;;;;;;9.30;2.03;;;14.60;52.10;;;;;;4984174;28;20158;-81
2022/05/28 11:15:56;;;;;;;11.45;2.20;;;15.00;54.70;;;;;;5010462;28;20035;-82
2022/05/28 11:18:55;;;;;;;7.93;1.98;;;15.10;71.10;;;;;;5002952;28;20038;-81
2022/05/28 11:21:43;;;;;;;11.50;2.10;;;15.20;68.50;;;;;;4982667;28;20052;-81
2022/05/28 11:24:20;;;;;;;10.60;2.10;;;14.20;59.40;;;;;;5005815;28;20030;-82
2022/05/28 11:27:24;;;;;;;8.88;1.83;;;13.70;54.80;;;;;;5010804;28;20125;-81
2022/05/28 11:30:16;;;;;;;5.90;1.95;;;13.50;54.30;;;;;;4978861;28;20102;-82
2022/05/28 11:33:06;;;;;;;9.98;2.22;;;13.30;90.00;;;;;;4981109;28;20057;-81
2022/05/28 11:35:55;;;;;;;13.60;2.40;;;13.50;90.40;;;;;;4977384;28;20031;-81
2022/05/28 11:38:46;;;;;;;7.93;2.58;;;14.20;82.70;;;;;;5004620;28;20034;-81
2022/05/28 11:41:25;;;;;;;6.95;2.30;;;14.80;75.30;;;;;;4982228;28;20153;-82
2022/05/28 11:44:03;;;;;;;10.00;2.58;;;14.90;64.60;;;;;;5008889;28;20073;-82
2022/05/28 11:46:46;;;;;;;10.75;2.60;;;14.10;71.70;;;;;;5008825;28;20050;-82
2022/05/28 11:52:32;;;;;;;14.07;3.22;;;13.30;83.10;;;;;;4980504;28;20776;-84
2022/05/28 11:55:14;;;;;;;;;;;12.60;99.90;;;;;;4981636;28;20042;-82
2022/05/28 11:58:04;;;;;;;12.30;3.13;;;12.20;1.00;;;;;;4999285;28;19921;-82
2022/05/28 12:00:34;;;;;;;14.15;3.33;;;12.50;1.00;;;;;;5009339;28;20038;-82
2022/05/28 12:03:21;;;;;;;12.25;3.17;;;12.80;1.00;;;;;;5002190;28;20042;-82
2022/05/28 12:05:55;;;;;;;13.15;2.78;;;12.80;99.90;;;;;;5001379;28;20042;-82
2022/05/28 12:08:35;;;;;;;17.42;2.88;;;13.10;99.90;;;;;;4986686;28;20619;-82
2022/05/28 12:11:05;;;;;;;14.15;3.00;;;13.80;99.90;;;;;;4977042;28;20125;-82
2022/05/28 12:13:40;;;;;;;13.45;3.03;;;14.30;99.90;;;;;;5007228;28;20148;-82
2022/05/28 12:16:09;;;;;;;;;;;14.00;99.90;;;;;;5010603;28;20046;-82
2022/05/28 12:18:35;;;;;;;12.10;2.97;;;13.50;99.90;;;;;;4965053;28;20004;-82
2022/05/28 12:21:03;;;;;;;9.20;2.50;;;13.60;99.90;;;;;;4970425;28;21345;-82
2022/05/28 12:23:42;;;;;;;10.82;2.75;;;13.80;99.90;;;;;;4974619;28;20056;-82
2022/05/28 12:29:26;;;;;;;15.65;2.78;;;13.80;99.90;;;;;;4980994;28;20053;-82
2022/05/28 12:31:52;;;;;;;9.20;2.22;;;13.90;99.90;;;;;;5004520;28;20164;-82
2022/05/28 12:34:23;;;;;;;11.45;2.85;;;14.00;99.90;;;;;;4998439;28;20066;-82
2022/05/28 12:36:53;;;;;;;11.13;2.92;;;14.20;99.90;;;;;;4980054;28;20073;-82
2022/05/28 12:39:44;;;;;;;9.70;2.10;;;13.70;99.90;;;;;;4984814;28;20100;-82
2022/05/28 12:42:26;;;;;;;10.95;2.40;;;13.30;99.90;;;;;;4994718;28;20049;-82
2022/05/28 12:44:52;;;;;;;11.48;3.38;;;13.30;99.90;;;;;;4982050;28;20092;-83
2022/05/28 12:47:28;;;;;;;9.32;2.78;;;13.30;99.90;;;;;;4993398;28;20481;-82
2022/05/28 12:50:24;;;;;;;12.25;2.83;;;13.50;99.90;;;;;;4990811;28;20472;-82
2022/05/28 12:52:53;;;;;;;10.30;3.08;;;13.50;99.90;;;;;;4980021;28;20043;-82
2022/05/28 12:55:35;;;;;;;11.73;2.63;;;14.60;99.90;;;;;;4997041;28;20177;-82
2022/05/28 12:58:25;;;;;;;14.95;2.55;;;14.30;99.90;;;;;;4985375;28;20030;-82
2022/05/28 13:00:55;;;;;;;8.23;2.17;;;13.60;99.90;;;;;;5008076;28;20049;-82
2022/05/28 13:03:26;;;;;;;10.57;2.17;;;13.50;99.90;;;;;;4984168;28;20050;-82
2022/05/28 13:06:28;;;;;;;7.75;1.92;;;14.80;99.90;;;;;;5011468;28;20492;-82
2022/05/28 13:09:10;;;;;;;8.05;2.25;;;14.80;94.20;;;;;;4978635;28;20495;-81
2022/05/28 13:11:48;;;;;;;8.75;2.33;;;15.20;84.40;;;;;;4983856;28;20042;-82
2022/05/28 13:14:32;;;;;;;8.88;1.98;;;15.10;86.30;;;;;;5012505;28;20042;-82
2022/05/28 13:17:04;;;;;;;9.65;1.80;;;14.90;75.00;;;;;;4982903;28;20050;-82